sensor_id;sensor_type;location;lat;lon;timestamp;P1;durP1;ratioP1;P2;durP2;ratioP2
66384;SDS011;53426;55.872;37.462;2023-03-14T00:02:13;2.50;;;2.30;;
66384;SDS011;53426;55.872;37.462;2023-03-14T00:04:39;7.50;;;1.67;;
66384;SDS011;53426;55.872;37.462;2023-03-14T00:07:04;5.57;;;2.03;;
66384;SDS011;53426;55.872;37.462;2023-03-14T00:09:30;2.70;;;1.88;;
66384;SDS011;53426;55.872;37.462;2023-03-14T00:11:56;1.85;;;1.75;;
66384;SDS011;53426;55.872;37.462;2023-03-14T00:14:22;2.90;;;2.22;;
66384;SDS011;53426;55.872;37.462;2023-03-14T00:16:48;2.40;;;2.20;;
66384;SDS011;53426;55.872;37.462;2023-03-14T00:19:14;5.65;;;2.92;;
66384;SDS011;53426;55.872;37.462;2023-03-14T00:21:40;2.55;;;2.28;;
66384;SDS011;53426;55.872;37.462;2023-03-14T00:24:06;1.92;;;1.55;;
66384;SDS011;53426;55.872;37.462;2023-03-14T00:26:33;2.72;;;2.13;;
66384;SDS011;53426;55.872;37.462;2023-03-14T00:28:59;3.03;;;2.03;;
66384;SDS011;53426;55.872;37.462;2023-03-14T00:31:25;5.10;;;2.40;;
66384;SDS011;53426;55.872;37.462;2023-03-14T00:33:51;2.92;;;2.28;;
66384;SDS011;53426;55.872;37.462;2023-03-14T00:36:18;2.33;;;1.83;;
66384;SDS011;53426;55.872;37.462;2023-03-14T00:38:49;5.03;;;2.33;;
66384;SDS011;53426;55.872;37.462;2023-03-14T00:41:20;2.65;;;2.20;;
66384;SDS011;53426;55.872;37.462;2023-03-14T00:43:48;2.55;;;2.35;;
66384;SDS011;53426;55.872;37.462;2023-03-14T00:46:14;4.05;;;2.67;;
66384;SDS011;53426;55.872;37.462;2023-03-14T00:48:44;2.40;;;2.20;;
66384;SDS011;53426;55.872;37.462;2023-03-14T00:51:12;2.75;;;2.42;;
66384;SDS011;53426;55.872;37.462;2023-03-14T00:53:43;2.92;;;2.38;;
66384;SDS011;53426;55.872;37.462;2023-03-14T00:56:10;5.15;;;2.53;;
66384;SDS011;53426;55.872;37.462;2023-03-14T00:58:37;5.07;;;3.17;;
66384;SDS011;53426;55.872;37.462;2023-03-14T01:01:07;3.75;;;2.38;;
66384;SDS011;53426;55.872;37.462;2023-03-14T01:03:39;6.03;;;2.70;;
66384;SDS011;53426;55.872;37.462;2023-03-14T01:06:12;7.30;;;2.83;;
66384;SDS011;53426;55.872;37.462;2023-03-14T01:08:44;2.92;;;2.72;;
66384;SDS011;53426;55.872;37.462;2023-03-14T01:11:12;3.63;;;3.33;;
66384;SDS011;53426;55.872;37.462;2023-03-14T01:13:40;4.22;;;2.35;;
66384;SDS011;53426;55.872;37.462;2023-03-14T01:16:07;3.63;;;3.30;;
66384;SDS011;53426;55.872;37.462;2023-03-14T01:18:37;7.13;;;3.42;;
66384;SDS011;53426;55.872;37.462;2023-03-14T01:21:09;5.05;;;3.75;;
66384;SDS011;53426;55.872;37.462;2023-03-14T01:23:37;3.08;;;2.70;;
66384;SDS011;53426;55.872;37.462;2023-03-14T01:26:08;3.38;;;2.30;;
66384;SDS011;53426;55.872;37.462;2023-03-14T01:28:36;4.70;;;3.05;;
66384;SDS011;53426;55.872;37.462;2023-03-14T01:31:04;3.47;;;3.17;;
66384;SDS011;53426;55.872;37.462;2023-03-14T01:33:31;4.60;;;3.72;;
66384;SDS011;53426;55.872;37.462;2023-03-14T01:35:58;8.82;;;3.53;;
66384;SDS011;53426;55.872;37.462;2023-03-14T01:38:24;4.15;;;3.50;;
66384;SDS011;53426;55.872;37.462;2023-03-14T01:40:51;4.05;;;3.38;;
66384;SDS011;53426;55.872;37.462;2023-03-14T01:43:18;6.03;;;3.75;;
66384;SDS011;53426;55.872;37.462;2023-03-14T01:48:31;4.32;;;3.47;;
66384;SDS011;53426;55.872;37.462;2023-03-14T01:51:04;3.58;;;2.65;;
66384;SDS011;53426;55.872;37.462;2023-03-14T01:53:35;5.45;;;3.65;;
66384;SDS011;53426;55.872;37.462;2023-03-14T01:56:04;3.42;;;3.13;;
66384;SDS011;53426;55.872;37.462;2023-03-14T01:58:32;6.72;;;4.00;;
66384;SDS011;53426;55.872;37.462;2023-03-14T02:00:59;3.35;;;3.05;;
66384;SDS011;53426;55.872;37.462;2023-03-14T02:03:27;10.27;;;4.25;;
66384;SDS011;53426;55.872;37.462;2023-03-14T02:05:59;4.97;;;3.47;;
66384;SDS011;53426;55.872;37.462;2023-03-14T02:08:32;4.55;;;3.22;;
66384;SDS011;53426;55.872;37.462;2023-03-14T02:11:04;7.70;;;4.10;;
66384;SDS011;53426;55.872;37.462;2023-03-14T02:13:51;3.67;;;3.30;;
66384;SDS011;53426;55.872;37.462;2023-03-14T02:16:30;5.95;;;4.15;;
66384;SDS011;53426;55.872;37.462;2023-03-14T02:19:11;7.95;;;3.88;;
66384;SDS011;53426;55.872;37.462;2023-03-14T02:22:16;7.93;;;4.40;;
66384;SDS011;53426;55.872;37.462;2023-03-14T02:27:30;8.15;;;3.47;;
66384;SDS011;53426;55.872;37.462;2023-03-14T02:30:01;12.85;;;3.90;;
66384;SDS011;53426;55.872;37.462;2023-03-14T02:32:30;15.63;;;4.47;;
66384;SDS011;53426;55.872;37.462;2023-03-14T02:34:58;3.85;;;3.45;;
66384;SDS011;53426;55.872;37.462;2023-03-14T02:40:32;4.47;;;3.88;;
66384;SDS011;53426;55.872;37.462;2023-03-14T02:42:58;5.93;;;4.10;;
66384;SDS011;53426;55.872;37.462;2023-03-14T02:47:59;6.25;;;4.38;;
66384;SDS011;53426;55.872;37.462;2023-03-14T02:53:13;4.35;;;4.03;;
66384;SDS011;53426;55.872;37.462;2023-03-14T02:55:47;5.13;;;4.30;;
66384;SDS011;53426;55.872;37.462;2023-03-14T02:58:23;4.95;;;3.58;;
66384;SDS011;53426;55.872;37.462;2023-03-14T03:00:55;5.28;;;4.78;;
66384;SDS011;53426;55.872;37.462;2023-03-14T03:03:22;4.53;;;4.13;;
66384;SDS011;53426;55.872;37.462;2023-03-14T03:05:49;7.63;;;5.35;;
66384;SDS011;53426;55.872;37.462;2023-03-14T03:08:21;10.13;;;5.75;;
66384;SDS011;53426;55.872;37.462;2023-03-14T03:10:48;5.88;;;4.07;;
66384;SDS011;53426;55.872;37.462;2023-03-14T03:13:14;5.95;;;5.22;;
66384;SDS011;53426;55.872;37.462;2023-03-14T03:15:42;10.40;;;3.90;;
66384;SDS011;53426;55.872;37.462;2023-03-14T03:18:08;5.80;;;4.95;;
66384;SDS011;53426;55.872;37.462;2023-03-14T03:20:34;4.78;;;3.67;;
66384;SDS011;53426;55.872;37.462;2023-03-14T03:23:00;4.90;;;3.95;;
66384;SDS011;53426;55.872;37.462;2023-03-14T03:25:26;6.45;;;5.63;;
66384;SDS011;53426;55.872;37.462;2023-03-14T03:27:52;5.35;;;3.75;;
66384;SDS011;53426;55.872;37.462;2023-03-14T03:30:20;9.48;;;3.90;;
66384;SDS011;53426;55.872;37.462;2023-03-14T03:32:46;7.65;;;5.70;;
66384;SDS011;53426;55.872;37.462;2023-03-14T03:35:12;18.65;;;5.45;;
66384;SDS011;53426;55.872;37.462;2023-03-14T03:37:40;8.57;;;5.85;;
66384;SDS011;53426;55.872;37.462;2023-03-14T03:40:06;5.45;;;4.95;;
66384;SDS011;53426;55.872;37.462;2023-03-14T03:42:35;6.22;;;5.50;;
66384;SDS011;53426;55.872;37.462;2023-03-14T03:45:01;6.93;;;5.47;;
66384;SDS011;53426;55.872;37.462;2023-03-14T03:47:30;6.93;;;5.22;;
66384;SDS011;53426;55.872;37.462;2023-03-14T03:49:57;5.82;;;3.85;;
66384;SDS011;53426;55.872;37.462;2023-03-14T03:52:23;7.60;;;6.75;;
66384;SDS011;53426;55.872;37.462;2023-03-14T03:54:49;7.15;;;5.10;;
66384;SDS011;53426;55.872;37.462;2023-03-14T03:57:15;6.03;;;5.22;;
66384;SDS011;53426;55.872;37.462;2023-03-14T03:59:40;5.90;;;5.25;;
66384;SDS011;53426;55.872;37.462;2023-03-14T04:02:07;7.75;;;6.18;;
66384;SDS011;53426;55.872;37.462;2023-03-14T04:04:33;8.45;;;4.45;;
66384;SDS011;53426;55.872;37.462;2023-03-14T04:07:01;10.85;;;5.20;;
66384;SDS011;53426;55.872;37.462;2023-03-14T04:09:27;5.43;;;4.90;;
66384;SDS011;53426;55.872;37.462;2023-03-14T04:12:09;7.95;;;5.70;;
66384;SDS011;53426;55.872;37.462;2023-03-14T04:15:00;9.18;;;5.88;;
66384;SDS011;53426;55.872;37.462;2023-03-14T04:17:26;6.55;;;4.88;;
66384;SDS011;53426;55.872;37.462;2023-03-14T04:19:52;8.15;;;5.25;;
66384;SDS011;53426;55.872;37.462;2023-03-14T04:22:21;7.18;;;6.03;;
66384;SDS011;53426;55.872;37.462;2023-03-14T04:24:49;13.13;;;6.50;;
66384;SDS011;53426;55.872;37.462;2023-03-14T04:27:17;10.10;;;6.30;;
66384;SDS011;53426;55.872;37.462;2023-03-14T04:29:44;9.63;;;4.82;;
66384;SDS011;53426;55.872;37.462;2023-03-14T04:32:14;8.20;;;6.03;;
66384;SDS011;53426;55.872;37.462;2023-03-14T04:34:40;8.40;;;5.65;;
66384;SDS011;53426;55.872;37.462;2023-03-14T04:37:06;9.23;;;5.40;;
66384;SDS011;53426;55.872;37.462;2023-03-14T04:39:40;8.13;;;5.55;;
66384;SDS011;53426;55.872;37.462;2023-03-14T04:42:16;7.63;;;6.78;;
66384;SDS011;53426;55.872;37.462;2023-03-14T04:44:42;8.77;;;6.57;;
66384;SDS011;53426;55.872;37.462;2023-03-14T04:47:11;10.98;;;5.40;;
66384;SDS011;53426;55.872;37.462;2023-03-14T04:49:38;13.20;;;6.82;;
66384;SDS011;53426;55.872;37.462;2023-03-14T04:52:07;16.63;;;6.45;;
66384;SDS011;53426;55.872;37.462;2023-03-14T04:54:35;6.63;;;5.22;;
66384;SDS011;53426;55.872;37.462;2023-03-14T04:57:01;7.00;;;6.18;;
66384;SDS011;53426;55.872;37.462;2023-03-14T04:59:30;10.88;;;6.57;;
66384;SDS011;53426;55.872;37.462;2023-03-14T05:02:03;7.82;;;6.13;;
66384;SDS011;53426;55.872;37.462;2023-03-14T05:04:44;7.90;;;6.00;;
66384;SDS011;53426;55.872;37.462;2023-03-14T05:07:38;7.80;;;4.90;;
66384;SDS011;53426;55.872;37.462;2023-03-14T05:10:22;4.72;;;4.30;;
66384;SDS011;53426;55.872;37.462;2023-03-14T05:13:07;7.15;;;6.18;;
66384;SDS011;53426;55.872;37.462;2023-03-14T05:16:10;11.75;;;6.22;;
66384;SDS011;53426;55.872;37.462;2023-03-14T05:18:50;11.20;;;5.15;;
66384;SDS011;53426;55.872;37.462;2023-03-14T05:21:34;6.13;;;5.22;;
66384;SDS011;53426;55.872;37.462;2023-03-14T05:24:19;7.88;;;5.55;;
66384;SDS011;53426;55.872;37.462;2023-03-14T05:27:05;8.02;;;5.60;;
66384;SDS011;53426;55.872;37.462;2023-03-14T05:30:03;10.50;;;6.30;;
66384;SDS011;53426;55.872;37.462;2023-03-14T05:35:15;12.65;;;6.35;;
66384;SDS011;53426;55.872;37.462;2023-03-14T05:37:41;10.07;;;5.18;;
66384;SDS011;53426;55.872;37.462;2023-03-14T05:40:31;7.25;;;4.82;;
66384;SDS011;53426;55.872;37.462;2023-03-14T05:43:04;8.60;;;5.85;;
66384;SDS011;53426;55.872;37.462;2023-03-14T05:48:24;3.70;;;3.25;;
66384;SDS011;53426;55.872;37.462;2023-03-14T05:51:10;8.30;;;5.65;;
66384;SDS011;53426;55.872;37.462;2023-03-14T05:53:54;7.43;;;4.68;;
66384;SDS011;53426;55.872;37.462;2023-03-14T05:56:45;7.80;;;5.28;;
66384;SDS011;53426;55.872;37.462;2023-03-14T05:59:31;9.95;;;5.20;;
66384;SDS011;53426;55.872;37.462;2023-03-14T06:02:15;12.98;;;5.50;;
66384;SDS011;53426;55.872;37.462;2023-03-14T06:04:52;9.15;;;5.38;;
66384;SDS011;53426;55.872;37.462;2023-03-14T06:07:18;7.18;;;4.80;;
66384;SDS011;53426;55.872;37.462;2023-03-14T06:09:44;13.18;;;4.20;;
66384;SDS011;53426;55.872;37.462;2023-03-14T06:12:10;4.47;;;3.42;;
66384;SDS011;53426;55.872;37.462;2023-03-14T06:14:41;7.97;;;4.55;;
66384;SDS011;53426;55.872;37.462;2023-03-14T06:17:08;12.10;;;4.75;;
66384;SDS011;53426;55.872;37.462;2023-03-14T06:19:41;6.35;;;4.20;;
66384;SDS011;53426;55.872;37.462;2023-03-14T06:22:07;12.40;;;5.07;;
66384;SDS011;53426;55.872;37.462;2023-03-14T06:24:38;6.57;;;4.00;;
66384;SDS011;53426;55.872;37.462;2023-03-14T06:27:04;6.95;;;4.60;;
66384;SDS011;53426;55.872;37.462;2023-03-14T06:29:30;7.97;;;4.45;;
66384;SDS011;53426;55.872;37.462;2023-03-14T06:31:56;11.43;;;4.45;;
66384;SDS011;53426;55.872;37.462;2023-03-14T06:34:22;6.97;;;5.28;;
66384;SDS011;53426;55.872;37.462;2023-03-14T06:36:48;5.82;;;4.55;;
66384;SDS011;53426;55.872;37.462;2023-03-14T06:39:14;6.18;;;3.85;;
66384;SDS011;53426;55.872;37.462;2023-03-14T06:41:44;8.68;;;4.25;;
66384;SDS011;53426;55.872;37.462;2023-03-14T06:44:10;8.48;;;4.60;;
66384;SDS011;53426;55.872;37.462;2023-03-14T06:46:37;5.35;;;4.47;;
66384;SDS011;53426;55.872;37.462;2023-03-14T06:49:03;7.55;;;5.10;;
66384;SDS011;53426;55.872;37.462;2023-03-14T06:51:31;5.63;;;4.70;;
66384;SDS011;53426;55.872;37.462;2023-03-14T06:53:57;7.53;;;5.18;;
66384;SDS011;53426;55.872;37.462;2023-03-14T06:56:26;7.47;;;5.25;;
66384;SDS011;53426;55.872;37.462;2023-03-14T06:58:54;7.32;;;4.65;;
66384;SDS011;53426;55.872;37.462;2023-03-14T07:01:24;7.53;;;3.78;;
66384;SDS011;53426;55.872;37.462;2023-03-14T07:03:52;5.32;;;4.68;;
66384;SDS011;53426;55.872;37.462;2023-03-14T07:06:20;10.50;;;4.38;;
66384;SDS011;53426;55.872;37.462;2023-03-14T07:08:47;9.15;;;4.78;;
66384;SDS011;53426;55.872;37.462;2023-03-14T07:11:14;10.23;;;5.00;;
66384;SDS011;53426;55.872;37.462;2023-03-14T07:13:40;8.00;;;4.53;;
66384;SDS011;53426;55.872;37.462;2023-03-14T07:16:07;8.50;;;4.30;;
66384;SDS011;53426;55.872;37.462;2023-03-14T07:18:36;3.70;;;3.40;;
66384;SDS011;53426;55.872;37.462;2023-03-14T07:21:07;10.60;;;4.70;;
66384;SDS011;53426;55.872;37.462;2023-03-14T07:23:37;9.32;;;4.93;;
66384;SDS011;53426;55.872;37.462;2023-03-14T07:26:04;9.07;;;4.88;;
66384;SDS011;53426;55.872;37.462;2023-03-14T07:28:32;5.78;;;3.67;;
66384;SDS011;53426;55.872;37.462;2023-03-14T07:31:13;5.00;;;3.88;;
66384;SDS011;53426;55.872;37.462;2023-03-14T07:33:40;6.47;;;3.70;;
66384;SDS011;53426;55.872;37.462;2023-03-14T07:36:06;5.13;;;3.97;;
66384;SDS011;53426;55.872;37.462;2023-03-14T07:38:33;7.15;;;4.88;;
66384;SDS011;53426;55.872;37.462;2023-03-14T07:41:28;6.90;;;4.30;;
66384;SDS011;53426;55.872;37.462;2023-03-14T07:44:14;10.80;;;4.95;;
66384;SDS011;53426;55.872;37.462;2023-03-14T07:46:40;9.43;;;3.85;;
66384;SDS011;53426;55.872;37.462;2023-03-14T07:49:06;8.65;;;5.07;;
66384;SDS011;53426;55.872;37.462;2023-03-14T07:51:31;4.65;;;4.18;;
66384;SDS011;53426;55.872;37.462;2023-03-14T07:53:57;11.95;;;4.93;;
66384;SDS011;53426;55.872;37.462;2023-03-14T07:56:23;8.48;;;4.75;;
66384;SDS011;53426;55.872;37.462;2023-03-14T07:58:49;4.45;;;3.50;;
66384;SDS011;53426;55.872;37.462;2023-03-14T08:01:15;5.38;;;3.35;;
66384;SDS011;53426;55.872;37.462;2023-03-14T08:03:41;9.73;;;4.43;;
66384;SDS011;53426;55.872;37.462;2023-03-14T08:06:07;21.05;;;5.63;;
66384;SDS011;53426;55.872;37.462;2023-03-14T08:08:32;4.22;;;3.80;;
66384;SDS011;53426;55.872;37.462;2023-03-14T08:11:03;8.93;;;4.20;;
66384;SDS011;53426;55.872;37.462;2023-03-14T08:16:00;9.57;;;4.68;;
66384;SDS011;53426;55.872;37.462;2023-03-14T08:18:26;6.93;;;4.78;;
66384;SDS011;53426;55.872;37.462;2023-03-14T08:20:51;6.72;;;3.78;;
66384;SDS011;53426;55.872;37.462;2023-03-14T08:23:17;9.23;;;4.07;;
66384;SDS011;53426;55.872;37.462;2023-03-14T08:25:43;8.73;;;3.95;;
66384;SDS011;53426;55.872;37.462;2023-03-14T08:28:09;6.15;;;4.45;;
66384;SDS011;53426;55.872;37.462;2023-03-14T08:30:36;4.95;;;2.75;;
66384;SDS011;53426;55.872;37.462;2023-03-14T08:33:03;7.70;;;4.05;;
66384;SDS011;53426;55.872;37.462;2023-03-14T08:35:29;6.03;;;4.85;;
66384;SDS011;53426;55.872;37.462;2023-03-14T08:37:54;10.93;;;4.90;;
66384;SDS011;53426;55.872;37.462;2023-03-14T08:40:21;6.57;;;4.10;;
66384;SDS011;53426;55.872;37.462;2023-03-14T08:42:46;10.15;;;4.97;;
66384;SDS011;53426;55.872;37.462;2023-03-14T08:45:13;9.43;;;4.63;;
66384;SDS011;53426;55.872;37.462;2023-03-14T08:47:40;6.35;;;4.45;;
66384;SDS011;53426;55.872;37.462;2023-03-14T08:50:06;8.50;;;4.82;;
66384;SDS011;53426;55.872;37.462;2023-03-14T08:52:33;7.93;;;4.53;;
66384;SDS011;53426;55.872;37.462;2023-03-14T08:54:58;7.68;;;4.18;;
66384;SDS011;53426;55.872;37.462;2023-03-14T08:57:24;6.50;;;4.40;;
66384;SDS011;53426;55.872;37.462;2023-03-14T08:59:54;9.63;;;5.05;;
66384;SDS011;53426;55.872;37.462;2023-03-14T09:02:21;6.50;;;4.35;;
66384;SDS011;53426;55.872;37.462;2023-03-14T09:04:47;9.82;;;4.63;;
66384;SDS011;53426;55.872;37.462;2023-03-14T09:07:13;7.40;;;4.43;;
66384;SDS011;53426;55.872;37.462;2023-03-14T09:09:42;3.80;;;3.50;;
66384;SDS011;53426;55.872;37.462;2023-03-14T09:12:08;5.25;;;3.78;;
66384;SDS011;53426;55.872;37.462;2023-03-14T09:14:34;4.95;;;3.78;;
66384;SDS011;53426;55.872;37.462;2023-03-14T09:17:00;8.13;;;4.90;;
66384;SDS011;53426;55.872;37.462;2023-03-14T09:19:26;8.85;;;4.55;;
66384;SDS011;53426;55.872;37.462;2023-03-14T09:21:52;5.00;;;3.80;;
66384;SDS011;53426;55.872;37.462;2023-03-14T09:24:18;5.55;;;4.20;;
66384;SDS011;53426;55.872;37.462;2023-03-14T09:26:44;5.43;;;4.30;;
66384;SDS011;53426;55.872;37.462;2023-03-14T09:29:09;7.38;;;3.92;;
66384;SDS011;53426;55.872;37.462;2023-03-14T09:31:35;13.07;;;4.28;;
66384;SDS011;53426;55.872;37.462;2023-03-14T09:34:01;5.20;;;3.53;;
66384;SDS011;53426;55.872;37.462;2023-03-14T09:36:27;4.55;;;3.78;;
66384;SDS011;53426;55.872;37.462;2023-03-14T09:38:53;4.47;;;3.53;;
66384;SDS011;53426;55.872;37.462;2023-03-14T09:41:25;6.88;;;4.28;;
66384;SDS011;53426;55.872;37.462;2023-03-14T09:43:55;8.80;;;4.43;;
66384;SDS011;53426;55.872;37.462;2023-03-14T09:46:46;5.82;;;4.38;;
66384;SDS011;53426;55.872;37.462;2023-03-14T09:49:28;5.60;;;3.88;;
66384;SDS011;53426;55.872;37.462;2023-03-14T09:51:58;4.80;;;4.40;;
66384;SDS011;53426;55.872;37.462;2023-03-14T09:54:30;6.40;;;4.90;;
66384;SDS011;53426;55.872;37.462;2023-03-14T09:57:01;6.20;;;4.50;;
66384;SDS011;53426;55.872;37.462;2023-03-14T09:59:28;7.75;;;4.50;;
66384;SDS011;53426;55.872;37.462;2023-03-14T10:01:56;5.38;;;4.07;;
66384;SDS011;53426;55.872;37.462;2023-03-14T10:04:29;6.60;;;3.58;;
66384;SDS011;53426;55.872;37.462;2023-03-14T10:06:57;7.70;;;4.05;;
66384;SDS011;53426;55.872;37.462;2023-03-14T10:09:23;4.35;;;3.05;;
66384;SDS011;53426;55.872;37.462;2023-03-14T10:11:56;6.78;;;4.93;;
66384;SDS011;53426;55.872;37.462;2023-03-14T10:14:29;8.02;;;4.07;;
66384;SDS011;53426;55.872;37.462;2023-03-14T10:16:59;6.85;;;4.75;;
66384;SDS011;53426;55.872;37.462;2023-03-14T10:19:31;8.43;;;5.13;;
66384;SDS011;53426;55.872;37.462;2023-03-14T10:21:57;9.80;;;5.32;;
66384;SDS011;53426;55.872;37.462;2023-03-14T10:24:27;14.73;;;5.72;;
66384;SDS011;53426;55.872;37.462;2023-03-14T10:26:57;9.40;;;5.30;;
66384;SDS011;53426;55.872;37.462;2023-03-14T10:29:27;8.45;;;5.60;;
66384;SDS011;53426;55.872;37.462;2023-03-14T10:31:59;10.70;;;5.35;;
66384;SDS011;53426;55.872;37.462;2023-03-14T10:34:31;14.55;;;6.07;;
66384;SDS011;53426;55.872;37.462;2023-03-14T10:37:14;12.50;;;6.35;;
66384;SDS011;53426;55.872;37.462;2023-03-14T10:42:13;10.10;;;5.07;;
66384;SDS011;53426;55.872;37.462;2023-03-14T10:44:44;6.75;;;4.65;;
66384;SDS011;53426;55.872;37.462;2023-03-14T10:47:19;13.05;;;6.13;;
66384;SDS011;53426;55.872;37.462;2023-03-14T10:49:47;7.53;;;5.03;;
66384;SDS011;53426;55.872;37.462;2023-03-14T10:52:24;14.00;;;4.90;;
66384;SDS011;53426;55.872;37.462;2023-03-14T10:54:56;8.45;;;4.25;;
66384;SDS011;53426;55.872;37.462;2023-03-14T10:57:24;7.03;;;3.85;;
66384;SDS011;53426;55.872;37.462;2023-03-14T10:59:51;14.57;;;5.55;;
66384;SDS011;53426;55.872;37.462;2023-03-14T11:02:40;8.27;;;4.90;;
66384;SDS011;53426;55.872;37.462;2023-03-14T11:05:28;12.07;;;4.03;;
66384;SDS011;53426;55.872;37.462;2023-03-14T11:08:07;8.50;;;5.85;;
66384;SDS011;53426;55.872;37.462;2023-03-14T11:10:39;7.22;;;4.40;;
66384;SDS011;53426;55.872;37.462;2023-03-14T11:13:13;18.75;;;5.20;;
66384;SDS011;53426;55.872;37.462;2023-03-14T11:28:41;7.15;;;3.88;;
66384;SDS011;53426;55.872;37.462;2023-03-14T11:31:16;7.68;;;5.00;;
66384;SDS011;53426;55.872;37.462;2023-03-14T11:33:47;11.18;;;4.45;;
66384;SDS011;53426;55.872;37.462;2023-03-14T11:36:25;19.98;;;5.35;;
66384;SDS011;53426;55.872;37.462;2023-03-14T11:38:59;8.30;;;4.60;;
66384;SDS011;53426;55.872;37.462;2023-03-14T11:41:27;7.03;;;4.68;;
66384;SDS011;53426;55.872;37.462;2023-03-14T11:43:59;12.02;;;4.32;;
66384;SDS011;53426;55.872;37.462;2023-03-14T11:46:38;4.75;;;4.22;;
66384;SDS011;53426;55.872;37.462;2023-03-14T11:52:11;11.05;;;5.00;;
66384;SDS011;53426;55.872;37.462;2023-03-14T11:54:43;14.68;;;4.20;;
66384;SDS011;53426;55.872;37.462;2023-03-14T11:57:29;5.13;;;4.30;;
66384;SDS011;53426;55.872;37.462;2023-03-14T12:00:25;6.15;;;3.67;;
66384;SDS011;53426;55.872;37.462;2023-03-14T12:02:53;12.52;;;4.72;;
66384;SDS011;53426;55.872;37.462;2023-03-14T12:10:55;11.45;;;4.78;;
66384;SDS011;53426;55.872;37.462;2023-03-14T12:13:30;4.55;;;4.10;;
66384;SDS011;53426;55.872;37.462;2023-03-14T12:15:59;12.50;;;4.30;;
66384;SDS011;53426;55.872;37.462;2023-03-14T12:18:30;4.75;;;4.22;;
66384;SDS011;53426;55.872;37.462;2023-03-14T12:21:04;6.40;;;4.00;;
66384;SDS011;53426;55.872;37.462;2023-03-14T12:23:52;8.50;;;4.20;;
66384;SDS011;53426;55.872;37.462;2023-03-14T12:26:21;6.75;;;4.50;;
66384;SDS011;53426;55.872;37.462;2023-03-14T12:28:52;12.48;;;4.15;;
66384;SDS011;53426;55.872;37.462;2023-03-14T12:31:36;9.53;;;3.90;;
66384;SDS011;53426;55.872;37.462;2023-03-14T12:34:24;8.15;;;4.60;;
66384;SDS011;53426;55.872;37.462;2023-03-14T12:42:50;10.85;;;4.88;;
66384;SDS011;53426;55.872;37.462;2023-03-14T12:45:34;5.47;;;3.90;;
66384;SDS011;53426;55.872;37.462;2023-03-14T12:48:08;5.82;;;4.40;;
66384;SDS011;53426;55.872;37.462;2023-03-14T12:50:43;9.82;;;4.18;;
66384;SDS011;53426;55.872;37.462;2023-03-14T12:56:15;6.57;;;4.10;;
66384;SDS011;53426;55.872;37.462;2023-03-14T13:01:28;6.32;;;3.97;;
66384;SDS011;53426;55.872;37.462;2023-03-14T13:03:55;9.50;;;5.32;;
66384;SDS011;53426;55.872;37.462;2023-03-14T13:12:03;7.97;;;3.80;;
66384;SDS011;53426;55.872;37.462;2023-03-14T13:14:35;4.13;;;3.72;;
66384;SDS011;53426;55.872;37.462;2023-03-14T13:17:10;4.75;;;4.07;;
66384;SDS011;53426;55.872;37.462;2023-03-14T13:19:37;9.55;;;4.28;;
66384;SDS011;53426;55.872;37.462;2023-03-14T13:22:05;5.82;;;3.92;;
66384;SDS011;53426;55.872;37.462;2023-03-14T13:24:40;5.78;;;3.50;;
66384;SDS011;53426;55.872;37.462;2023-03-14T13:27:10;4.90;;;4.25;;
66384;SDS011;53426;55.872;37.462;2023-03-14T13:29:50;4.25;;;3.85;;
66384;SDS011;53426;55.872;37.462;2023-03-14T13:32:19;13.38;;;4.72;;
66384;SDS011;53426;55.872;37.462;2023-03-14T13:34:47;6.40;;;4.07;;
66384;SDS011;53426;55.872;37.462;2023-03-14T13:37:23;9.20;;;4.50;;
66384;SDS011;53426;55.872;37.462;2023-03-14T13:39:54;4.82;;;3.58;;
66384;SDS011;53426;55.872;37.462;2023-03-14T13:42:26;9.63;;;4.45;;
66384;SDS011;53426;55.872;37.462;2023-03-14T13:44:54;5.32;;;3.88;;
66384;SDS011;53426;55.872;37.462;2023-03-14T13:47:23;6.93;;;4.00;;
66384;SDS011;53426;55.872;37.462;2023-03-14T13:49:55;5.07;;;4.50;;
66384;SDS011;53426;55.872;37.462;2023-03-14T13:52:25;9.23;;;3.83;;
66384;SDS011;53426;55.872;37.462;2023-03-14T13:54:58;4.65;;;3.92;;
66384;SDS011;53426;55.872;37.462;2023-03-14T13:58:02;6.93;;;4.03;;
66384;SDS011;53426;55.872;37.462;2023-03-14T14:00:25;7.13;;;4.22;;
66384;SDS011;53426;55.872;37.462;2023-03-14T14:02:53;11.30;;;4.00;;
66384;SDS011;53426;55.872;37.462;2023-03-14T14:05:20;5.93;;;4.13;;
66384;SDS011;53426;55.872;37.462;2023-03-14T14:07:48;8.27;;;4.47;;
66384;SDS011;53426;55.872;37.462;2023-03-14T14:10:16;5.88;;;3.92;;
66384;SDS011;53426;55.872;37.462;2023-03-14T14:12:47;9.65;;;4.40;;
66384;SDS011;53426;55.872;37.462;2023-03-14T14:15:19;5.10;;;3.67;;
66384;SDS011;53426;55.872;37.462;2023-03-14T14:17:52;6.65;;;3.88;;
66384;SDS011;53426;55.872;37.462;2023-03-14T14:20:37;9.75;;;3.40;;
66384;SDS011;53426;55.872;37.462;2023-03-14T14:23:38;5.57;;;4.22;;
66384;SDS011;53426;55.872;37.462;2023-03-14T14:25:58;3.65;;;3.22;;
66384;SDS011;53426;55.872;37.462;2023-03-14T14:28:26;13.18;;;4.53;;
66384;SDS011;53426;55.872;37.462;2023-03-14T14:31:05;6.57;;;3.80;;
66384;SDS011;53426;55.872;37.462;2023-03-14T14:33:53;7.57;;;3.72;;
66384;SDS011;53426;55.872;37.462;2023-03-14T14:36:25;6.85;;;4.38;;
66384;SDS011;53426;55.872;37.462;2023-03-14T14:38:59;6.35;;;3.50;;
66384;SDS011;53426;55.872;37.462;2023-03-14T14:44:10;8.13;;;4.18;;
66384;SDS011;53426;55.872;37.462;2023-03-14T14:46:41;5.85;;;4.32;;
66384;SDS011;53426;55.872;37.462;2023-03-14T14:49:29;5.70;;;4.25;;
66384;SDS011;53426;55.872;37.462;2023-03-14T14:52:02;4.90;;;4.40;;
66384;SDS011;53426;55.872;37.462;2023-03-14T14:54:46;6.35;;;3.47;;
66384;SDS011;53426;55.872;37.462;2023-03-14T14:59:56;5.07;;;4.38;;
66384;SDS011;53426;55.872;37.462;2023-03-14T15:05:05;5.00;;;4.32;;
66384;SDS011;53426;55.872;37.462;2023-03-14T15:07:37;4.13;;;3.70;;
66384;SDS011;53426;55.872;37.462;2023-03-14T15:12:54;4.07;;;3.17;;
66384;SDS011;53426;55.872;37.462;2023-03-14T15:15:20;4.18;;;3.70;;
66384;SDS011;53426;55.872;37.462;2023-03-14T15:17:46;8.77;;;5.32;;
66384;SDS011;53426;55.872;37.462;2023-03-14T15:20:15;5.63;;;3.72;;
66384;SDS011;53426;55.872;37.462;2023-03-14T15:22:43;7.50;;;4.68;;
66384;SDS011;53426;55.872;37.462;2023-03-14T15:25:12;7.15;;;4.28;;
66384;SDS011;53426;55.872;37.462;2023-03-14T15:27:39;3.33;;;3.03;;
66384;SDS011;53426;55.872;37.462;2023-03-14T15:30:17;6.25;;;4.03;;
66384;SDS011;53426;55.872;37.462;2023-03-14T15:32:43;5.30;;;4.18;;
66384;SDS011;53426;55.872;37.462;2023-03-14T15:35:10;5.68;;;3.80;;
66384;SDS011;53426;55.872;37.462;2023-03-14T15:37:36;7.93;;;3.85;;
66384;SDS011;53426;55.872;37.462;2023-03-14T15:40:03;4.32;;;3.92;;
66384;SDS011;53426;55.872;37.462;2023-03-14T15:42:37;4.40;;;3.60;;
66384;SDS011;53426;55.872;37.462;2023-03-14T15:45:03;5.57;;;3.25;;
66384;SDS011;53426;55.872;37.462;2023-03-14T15:47:29;4.57;;;3.88;;
66384;SDS011;53426;55.872;37.462;2023-03-14T15:50:00;12.27;;;4.32;;
66384;SDS011;53426;55.872;37.462;2023-03-14T15:52:26;4.53;;;3.75;;
66384;SDS011;53426;55.872;37.462;2023-03-14T15:54:52;6.32;;;4.13;;
66384;SDS011;53426;55.872;37.462;2023-03-14T15:57:18;5.45;;;4.03;;
66384;SDS011;53426;55.872;37.462;2023-03-14T15:59:44;3.97;;;3.30;;
66384;SDS011;53426;55.872;37.462;2023-03-14T16:02:10;6.00;;;3.80;;
66384;SDS011;53426;55.872;37.462;2023-03-14T16:04:36;6.65;;;3.97;;
66384;SDS011;53426;55.872;37.462;2023-03-14T16:07:01;4.40;;;3.40;;
66384;SDS011;53426;55.872;37.462;2023-03-14T16:09:27;5.15;;;3.13;;